createdAt,value
2022-12-18T00:03:38.067Z,0.50
2022-12-18T00:08:32.800Z,0.80
2022-12-18T00:13:26.319Z,0.70
2022-12-18T00:18:21.862Z,0.60
2022-12-18T00:23:15.266Z,0.50
2022-12-18T00:28:08.788Z,0.68
2022-12-18T00:33:02.638Z,0.55
2022-12-18T00:37:56.341Z,0.70
2022-12-18T00:42:58.707Z,0.50
2022-12-18T00:47:51.325Z,0.80
2022-12-18T00:52:45.057Z,0.77
2022-12-18T00:57:38.072Z,0.82
2022-12-18T01:02:32.117Z,0.60
2022-12-18T01:07:24.933Z,0.85
2022-12-18T01:12:18.205Z,0.73
2022-12-18T01:17:11.154Z,0.80
2022-12-18T01:22:04.733Z,0.77
2022-12-18T01:26:58.649Z,0.80
2022-12-18T01:31:51.166Z,0.70
2022-12-18T01:36:45.759Z,0.68
2022-12-18T01:41:58.566Z,0.70
2022-12-18T01:46:52.743Z,0.90
2022-12-18T01:51:46.667Z,0.73
2022-12-18T01:56:40.040Z,0.82
2022-12-18T02:01:34.478Z,0.70
2022-12-18T02:06:39.526Z,0.80
2022-12-18T02:11:48.214Z,0.85
2022-12-18T02:16:57.905Z,0.68
2022-12-18T02:21:58.883Z,0.93
2022-12-18T02:26:55.366Z,0.70
2022-12-18T02:36:53.383Z,0.95
2022-12-18T02:41:47.056Z,1.00
2022-12-18T02:46:48.234Z,1.02
2022-12-18T02:52:02.558Z,0.80
2022-12-18T02:57:05.610Z,0.60
2022-12-18T03:02:26.318Z,0.93
2022-12-18T03:12:41.435Z,1.17
2022-12-18T03:17:36.804Z,1.00
2022-12-18T03:22:33.426Z,1.00
2022-12-18T03:27:34.727Z,0.93
2022-12-18T03:32:34.819Z,0.90
2022-12-18T03:38:07.929Z,0.90
2022-12-18T03:43:40.755Z,0.90
2022-12-18T03:48:43.320Z,1.00
2022-12-18T03:53:45.030Z,0.98
2022-12-18T03:58:59.497Z,1.02
2022-12-18T04:03:56.462Z,1.00
2022-12-18T04:08:50.662Z,1.00
2022-12-18T04:13:47.814Z,1.00
2022-12-18T04:18:46.442Z,0.90
2022-12-18T04:23:41.716Z,0.85
2022-12-18T04:28:35.892Z,1.00
2022-12-18T04:33:30.041Z,1.13
2022-12-18T04:38:24.443Z,1.00
2022-12-18T04:43:25.348Z,0.90
2022-12-18T04:48:19.189Z,1.00
2022-12-18T04:53:12.498Z,0.98
2022-12-18T04:58:05.791Z,1.00
2022-12-18T05:02:59.794Z,0.98
2022-12-18T05:07:53.472Z,1.13
2022-12-18T05:13:01.606Z,1.15
2022-12-18T05:17:56.039Z,0.95
2022-12-18T05:22:50.103Z,1.13
2022-12-18T05:27:43.204Z,1.20
2022-12-18T05:32:35.928Z,1.20
2022-12-18T05:37:29.980Z,0.93
2022-12-18T05:42:22.706Z,1.02
2022-12-18T05:47:15.526Z,1.35
2022-12-18T05:52:08.190Z,1.00
2022-12-18T05:57:01.703Z,1.10
2022-12-18T06:01:54.760Z,1.15
2022-12-18T06:06:49.126Z,1.10
2022-12-18T06:11:42.567Z,1.20
2022-12-18T06:16:35.341Z,0.90
2022-12-18T06:21:29.355Z,1.23
2022-12-18T06:26:27.841Z,0.95
2022-12-18T06:31:22.101Z,1.25
2022-12-18T06:36:17.223Z,1.17
2022-12-18T06:41:15.373Z,1.00
2022-12-18T06:46:08.482Z,1.10
2022-12-18T06:51:02.046Z,1.20
2022-12-18T06:55:54.165Z,1.17
2022-12-18T07:00:49.440Z,1.45
2022-12-18T07:05:42.453Z,1.23
2022-12-18T07:10:46.289Z,1.92
2022-12-18T07:15:41.853Z,2.30
2022-12-18T07:20:36.338Z,1.90
2022-12-18T07:25:29.906Z,2.40
2022-12-18T07:30:24.050Z,2.10
2022-12-18T07:35:23.357Z,2.15
2022-12-18T07:40:18.150Z,3.95
2022-12-18T07:45:12.098Z,3.92
2022-12-18T07:50:05.799Z,3.58
2022-12-18T07:55:00.173Z,3.70
2022-12-18T07:59:52.904Z,4.25
2022-12-18T08:04:48.481Z,4.07
2022-12-18T08:09:43.055Z,3.78
2022-12-18T08:14:36.282Z,3.25
2022-12-18T08:19:29.822Z,3.45
2022-12-18T08:24:23.446Z,3.17
2022-12-18T08:29:21.445Z,3.38
2022-12-18T08:34:15.046Z,2.97
2022-12-18T08:39:09.316Z,3.40
2022-12-18T08:44:22.027Z,3.38
2022-12-18T08:49:15.723Z,3.13
2022-12-18T08:54:08.733Z,3.47
2022-12-18T08:59:01.831Z,3.65
2022-12-18T09:03:54.628Z,3.40
2022-12-18T09:08:47.050Z,3.67
2022-12-18T09:13:41.911Z,3.67
2022-12-18T09:18:37.222Z,3.63
2022-12-18T09:23:30.625Z,3.90
2022-12-18T09:28:24.242Z,3.97
2022-12-18T09:33:18.539Z,3.45
2022-12-18T09:38:14.401Z,3.78
2022-12-18T09:43:11.848Z,6.05
2022-12-18T09:48:06.746Z,3.35
2022-12-18T09:53:07.657Z,3.45
2022-12-18T09:58:16.124Z,3.53
2022-12-18T10:03:14.792Z,2.85
2022-12-18T10:08:33.377Z,2.63
2022-12-18T10:13:31.297Z,2.70
2022-12-18T10:18:53.519Z,2.72
2022-12-18T10:24:30.241Z,2.42
2022-12-18T10:29:23.896Z,2.10
2022-12-18T10:34:16.614Z,1.98
2022-12-18T10:39:35.869Z,2.30
2022-12-18T10:44:29.547Z,2.35
2022-12-18T10:49:28.910Z,2.53
2022-12-18T10:54:27.098Z,2.20
2022-12-18T10:59:20.534Z,1.58
2022-12-18T11:04:19.702Z,1.90
2022-12-18T11:09:24.677Z,1.60
2022-12-18T11:14:46.924Z,1.30
2022-12-18T11:19:42.653Z,1.60
2022-12-18T11:24:37.317Z,1.65
2022-12-18T11:29:33.257Z,1.85
2022-12-18T11:34:33.319Z,1.98
2022-12-18T11:40:05.091Z,1.58
2022-12-18T11:45:12.999Z,1.00
2022-12-18T11:50:34.172Z,1.30
2022-12-18T11:55:51.909Z,1.73
2022-12-18T12:00:52.659Z,1.60
2022-12-18T12:06:09.511Z,1.50
2022-12-18T12:11:04.922Z,1.10
2022-12-18T12:16:13.762Z,1.23
2022-12-18T12:21:24.288Z,1.83
2022-12-18T12:26:29.862Z,2.45
2022-12-18T12:31:40.321Z,2.33
2022-12-18T12:37:04.042Z,2.57
2022-12-18T12:42:15.823Z,2.75
2022-12-18T12:47:31.743Z,3.13
2022-12-18T12:53:03.842Z,2.58
2022-12-18T12:58:16.546Z,2.30
2022-12-18T13:03:17.146Z,2.17
2022-12-18T13:08:33.246Z,1.95
2022-12-18T13:13:52.311Z,1.98
2022-12-18T13:18:51.972Z,2.28
2022-12-18T13:23:46.259Z,2.17
2022-12-18T13:28:49.120Z,3.15
2022-12-18T13:34:24.016Z,3.85
2022-12-18T13:39:21.223Z,3.53
2022-12-18T13:44:50.325Z,3.13
2022-12-18T13:49:45.681Z,3.78
2022-12-18T13:54:42.122Z,3.60
2022-12-18T13:59:40.391Z,2.33
2022-12-18T14:04:37.994Z,2.60
2022-12-18T14:09:32.564Z,2.10
2022-12-18T14:14:32.378Z,1.85
2022-12-18T14:19:27.031Z,1.95
2022-12-18T14:24:23.463Z,1.58
2022-12-18T14:29:28.109Z,1.60
2022-12-18T14:34:27.726Z,1.80
2022-12-18T14:39:20.329Z,2.25
2022-12-18T14:44:15.326Z,2.08
2022-12-18T14:49:28.394Z,2.70
2022-12-18T14:54:22.169Z,1.95
2022-12-18T14:59:24.093Z,1.85
2022-12-18T15:04:36.521Z,2.35
2022-12-18T15:09:30.106Z,1.85
2022-12-18T15:14:38.560Z,1.90
2022-12-18T15:19:39.631Z,1.92
2022-12-18T15:24:34.374Z,2.17
2022-12-18T15:29:28.084Z,2.03
2022-12-18T15:34:24.360Z,1.70
2022-12-18T15:39:17.845Z,2.45
2022-12-18T15:44:37.651Z,2.55
2022-12-18T15:49:31.202Z,2.88
2022-12-18T15:54:44.361Z,12.10
2022-12-18T15:59:37.709Z,15.27
2022-12-18T16:04:31.625Z,9.10
2022-12-18T16:09:26.652Z,6.78
2022-12-18T16:14:23.431Z,5.65
2022-12-18T16:19:17.256Z,4.90
2022-12-18T16:24:21.013Z,4.35
2022-12-18T16:29:14.929Z,5.10
2022-12-18T16:34:35.223Z,5.32
2022-12-18T16:39:28.825Z,6.05
2022-12-18T16:44:22.054Z,6.57
2022-12-18T16:49:20.674Z,5.95
2022-12-18T16:54:18.867Z,6.03
2022-12-18T16:59:13.428Z,6.30
2022-12-18T17:04:07.227Z,5.47
2022-12-18T17:09:03.464Z,6.00
2022-12-18T17:13:55.983Z,5.80
2022-12-18T17:18:51.090Z,5.45
2022-12-18T17:23:46.148Z,6.97
2022-12-18T17:28:40.146Z,6.20
2022-12-18T17:33:33.383Z,10.23
2022-12-18T17:38:26.581Z,10.13
2022-12-18T17:43:20.907Z,9.70
2022-12-18T17:48:16.806Z,9.55
2022-12-18T17:53:11.078Z,12.57
2022-12-18T17:58:05.518Z,11.35
2022-12-18T18:02:59.430Z,10.68
2022-12-18T18:07:52.650Z,9.88
2022-12-18T18:13:04.567Z,8.95
2022-12-18T18:17:58.374Z,10.10
2022-12-18T18:22:51.972Z,8.95
2022-12-18T18:27:46.117Z,6.60
2022-12-18T18:32:42.260Z,4.25
2022-12-18T18:37:36.716Z,4.45
2022-12-18T18:42:29.691Z,3.65
2022-12-18T18:47:22.326Z,3.20
2022-12-18T18:52:14.791Z,3.35
2022-12-18T18:57:20.445Z,3.80
2022-12-18T19:02:15.496Z,5.32
2022-12-18T19:07:09.577Z,9.57
2022-12-18T19:12:21.283Z,10.73
2022-12-18T19:17:15.762Z,7.38
2022-12-18T19:22:11.122Z,7.10
2022-12-18T19:27:04.449Z,5.63
2022-12-18T19:31:57.646Z,5.85
2022-12-18T19:36:56.482Z,5.00
2022-12-18T19:41:52.572Z,4.75
2022-12-18T19:46:47.072Z,4.97
2022-12-18T19:51:45.588Z,5.32
2022-12-18T19:56:38.239Z,5.47
2022-12-18T20:01:31.436Z,5.40
2022-12-18T20:06:36.547Z,5.90
2022-12-18T20:11:30.730Z,5.95
2022-12-18T20:16:23.748Z,5.75
2022-12-18T20:21:17.205Z,6.20
2022-12-18T20:26:10.601Z,5.45
2022-12-18T20:31:13.225Z,5.40
2022-12-18T20:36:15.289Z,5.47
2022-12-18T20:41:12.081Z,5.78
2022-12-18T20:46:08.087Z,5.47
2022-12-18T20:51:02.619Z,5.88
2022-12-18T20:55:58.024Z,5.28
2022-12-18T21:00:51.297Z,5.88
2022-12-18T21:05:44.814Z,6.32
2022-12-18T21:10:39.206Z,6.35
2022-12-18T21:15:33.139Z,6.25
2022-12-18T21:20:26.569Z,6.38
2022-12-18T21:25:19.534Z,6.20
2022-12-18T21:30:15.351Z,6.82
2022-12-18T21:35:09.694Z,6.30
2022-12-18T21:40:02.643Z,6.15
2022-12-18T21:44:56.775Z,5.85
2022-12-18T21:49:50.866Z,6.90
2022-12-18T21:54:44.829Z,6.55
2022-12-18T21:59:40.223Z,6.63
2022-12-18T22:04:33.987Z,6.32
2022-12-18T22:09:27.637Z,6.88
2022-12-18T22:14:21.745Z,6.78
2022-12-18T22:19:15.814Z,7.47
2022-12-18T22:24:13.801Z,7.78
2022-12-18T22:29:27.088Z,8.55
2022-12-18T22:34:23.251Z,7.78
2022-12-18T22:39:19.216Z,8.48
2022-12-18T22:44:13.188Z,7.93
2022-12-18T22:49:13.709Z,7.95
2022-12-18T22:54:06.829Z,9.30
2022-12-18T22:59:01.319Z,9.73
2022-12-18T23:03:54.719Z,9.38
2022-12-18T23:08:52.975Z,10.25
2022-12-18T23:13:49.311Z,9.93
2022-12-18T23:18:42.543Z,10.52
2022-12-18T23:23:37.196Z,10.20
2022-12-18T23:28:31.981Z,9.90
2022-12-18T23:33:25.648Z,10.63
2022-12-18T23:38:19.942Z,11.25
2022-12-18T23:43:13.103Z,10.95
2022-12-18T23:48:06.502Z,12.00
2022-12-18T23:53:04.848Z,11.73
2022-12-18T23:57:59.717Z,11.68
